Time;durP1;ratioP1;P1;durP2;ratioP2;P2;SDS_P1;SDS_P2;PMS_P1;PMS_P2;Temp;Humidity;BMP_temperature;BMP_pressure;BME280_temperature;BME280_humidity;BME280_pressure;Samples;Min_cycle;Max_cycle;Signal;HPM_P1;HPM_P2
2021/04/30 00:01:39;;;;;;;5.40;4.90;;;7.90;97.40;;;;;;5079046;28;20249;-93
2021/04/30 00:04:06;;;;;;;5.72;5.22;;;8.00;97.80;;;;;;5078029;28;20281;-93
2021/04/30 00:06:33;;;;;;;5.93;5.38;;;8.00;97.30;;;;;;5084086;28;20265;-92
2021/04/30 00:08:59;;;;;;;5.72;4.88;;;8.00;97.10;;;;;;5078167;28;20185;-92
2021/04/30 00:11:25;;;;;;;6.50;5.90;;;8.00;97.30;;;;;;5079036;28;20221;-92
2021/04/30 00:13:52;;;;;;;5.90;5.30;;;8.00;97.30;;;;;;5078678;28;20205;-92
2021/04/30 00:16:18;;;;;;;6.53;5.93;;;8.00;97.00;;;;;;5078367;28;20266;-94
2021/04/30 00:18:44;;;;;;;5.72;5.22;;;8.00;96.80;;;;;;5079205;28;20275;-93
2021/04/30 00:21:10;;;;;;;8.40;5.97;;;8.00;96.60;;;;;;5078691;28;20189;-93
2021/04/30 00:23:38;;;;;;;5.93;5.38;;;8.00;96.70;;;;;;5078881;28;20228;-91
2021/04/30 00:26:07;;;;;;;5.97;5.38;;;8.10;96.60;;;;;;5076111;28;20246;-91
2021/04/30 00:28:34;;;;;;;6.13;5.63;;;8.00;96.40;;;;;;5078654;28;20199;-93
2021/04/30 00:31:01;;;;;;;6.55;5.95;;;8.10;96.60;;;;;;5078546;28;20191;-92
2021/04/30 00:33:28;;;;;;;6.88;5.70;;;8.10;96.40;;;;;;5078552;28;20209;-93
2021/04/30 00:35:55;;;;;;;6.40;5.82;;;8.10;96.20;;;;;;5078675;28;20221;-91
2021/04/30 00:38:22;;;;;;;5.95;5.35;;;8.10;96.30;;;;;;5078495;28;20257;-92
2021/04/30 00:40:50;;;;;;;5.38;4.97;;;8.00;96.40;;;;;;5078449;28;20281;-92
2021/04/30 00:43:16;;;;;;;6.70;6.05;;;8.10;96.30;;;;;;5078435;28;20233;-93
2021/04/30 00:45:43;;;;;;;6.72;6.13;;;8.20;96.40;;;;;;5078223;28;20192;-92
2021/04/30 00:48:11;;;;;;;6.25;5.60;;;8.20;96.20;;;;;;5063217;28;20197;-92
2021/04/30 00:50:37;;;;;;;5.72;5.22;;;8.20;96.30;;;;;;5058254;28;20269;-92
2021/04/30 00:53:04;;;;;;;5.95;5.35;;;8.20;96.30;;;;;;5057420;28;20231;-92
2021/04/30 00:55:30;;;;;;;6.30;5.70;;;8.10;96.30;;;;;;5054411;28;20299;-92
2021/04/30 00:57:59;;;;;;;6.88;6.07;;;8.10;96.00;;;;;;5053815;28;20205;-91
2021/04/30 01:00:27;;;;;;;7.43;6.30;;;8.10;96.10;;;;;;5053165;28;20702;-91
2021/04/30 01:02:54;;;;;;;6.80;6.20;;;8.00;95.80;;;;;;5053435;28;20225;-91
2021/04/30 01:05:22;;;;;;;5.97;5.40;;;8.00;95.90;;;;;;5053251;28;20197;-92
2021/04/30 01:07:48;;;;;;;6.68;6.07;;;8.00;95.70;;;;;;5053479;28;20282;-92
2021/04/30 01:10:15;;;;;;;6.40;5.80;;;8.00;96.10;;;;;;5053264;28;20209;-92
2021/04/30 01:12:43;;;;;;;6.63;5.80;;;8.00;96.30;;;;;;5053403;28;20574;-92
2021/04/30 01:15:12;;;;;;;6.80;5.97;;;8.00;96.60;;;;;;5053917;28;20213;-92
2021/04/30 01:17:38;;;;;;;6.63;5.78;;;7.90;96.40;;;;;;5052968;28;20201;-92
2021/04/30 01:20:07;;;;;;;6.55;5.85;;;7.90;95.90;;;;;;5053611;28;20209;-92
2021/04/30 01:22:35;;;;;;;6.55;5.85;;;7.90;95.80;;;;;;5053292;28;20323;-92
2021/04/30 01:25:02;;;;;;;7.43;6.72;;;7.90;96.00;;;;;;5053302;28;20662;-92
2021/04/30 01:27:28;;;;;;;6.13;5.55;;;7.90;95.90;;;;;;5051997;28;20287;-92
2021/04/30 01:29:55;;;;;;;6.95;6.00;;;7.90;96.00;;;;;;5053607;28;20217;-92
2021/04/30 01:32:21;;;;;;;7.05;5.55;;;7.90;95.80;;;;;;5054314;28;20702;-92
2021/04/30 01:34:47;;;;;;;6.90;6.05;;;7.90;96.00;;;;;;5066723;28;20219;-92
2021/04/30 01:37:14;;;;;;;8.77;6.13;;;7.80;96.00;;;;;;5061402;28;20205;-93
2021/04/30 01:39:41;;;;;;;7.30;6.32;;;7.90;96.10;;;;;;5077504;28;20184;-92
2021/04/30 01:42:09;;;;;;;7.70;6.90;;;7.80;96.20;;;;;;5063958;28;20311;-91
2021/04/30 01:44:35;;;;;;;6.90;6.30;;;7.80;95.70;;;;;;5053221;28;20204;-90
2021/04/30 01:47:02;;;;;;;6.90;6.15;;;7.80;95.70;;;;;;5054007;28;20201;-91
2021/04/30 01:49:29;;;;;;;6.78;6.03;;;7.80;96.10;;;;;;5053272;28;20284;-91
2021/04/30 01:51:55;;;;;;;7.75;6.95;;;7.80;95.60;;;;;;5052810;28;20201;-91
2021/04/30 01:54:22;;;;;;;8.40;7.05;;;7.90;95.80;;;;;;5052747;28;20213;-91
2021/04/30 01:56:49;;;;;;;8.50;6.88;;;7.80;95.60;;;;;;5052821;28;20200;-91
2021/04/30 01:59:16;;;;;;;7.53;6.80;;;7.80;95.50;;;;;;5051993;28;20338;-92
2021/04/30 02:01:42;;;;;;;7.65;6.88;;;7.80;95.40;;;;;;5052936;28;20217;-92
2021/04/30 02:04:11;;;;;;;10.02;6.55;;;7.90;95.00;;;;;;5052082;28;20225;-92
2021/04/30 02:06:38;;;;;;;7.40;6.70;;;7.90;95.70;;;;;;5051743;28;20299;-92
2021/04/30 02:09:06;;;;;;;8.68;7.60;;;7.80;95.80;;;;;;5051724;28;20205;-91
2021/04/30 02:11:33;;;;;;;8.25;7.38;;;7.80;95.90;;;;;;5051602;28;20650;-91
2021/04/30 02:14:00;;;;;;;8.35;7.50;;;7.80;95.90;;;;;;5051821;28;20220;-93
2021/04/30 02:16:26;;;;;;;7.57;6.80;;;7.80;96.30;;;;;;5051560;28;20225;-92
2021/04/30 02:18:53;;;;;;;6.50;5.90;;;7.70;96.70;;;;;;5051929;28;20201;-91
2021/04/30 02:21:19;;;;;;;8.52;7.68;;;7.80;97.00;;;;;;5051604;28;20658;-92
2021/04/30 02:23:46;;;;;;;10.18;8.50;;;7.70;97.50;;;;;;5052443;28;20225;-92
2021/04/30 02:26:14;;;;;;;9.00;8.10;;;7.70;98.90;;;;;;5052173;28;20212;-93
2021/04/30 02:28:42;;;;;;;11.02;8.55;;;7.70;99.40;;;;;;5052038;28;20205;-92
2021/04/30 02:31:10;;;;;;;9.45;8.45;;;7.70;99.90;;;;;;5051910;28;20201;-92
2021/04/30 02:33:36;;;;;;;10.45;8.82;;;7.60;99.90;;;;;;5051389;28;20243;-92
2021/04/30 02:36:03;;;;;;;10.55;9.45;;;7.60;99.90;;;;;;5052060;28;20221;-92
2021/04/30 02:38:31;;;;;;;10.75;9.10;;;7.50;99.90;;;;;;5050960;28;20208;-91
2021/04/30 02:40:58;;;;;;;9.20;8.30;;;7.50;99.90;;;;;;5051922;28;20683;-91
2021/04/30 02:43:24;;;;;;;10.27;9.27;;;7.50;99.90;;;;;;5051886;28;20701;-92
2021/04/30 02:45:51;;;;;;;9.60;8.57;;;7.40;99.90;;;;;;5052806;28;20201;-92
2021/04/30 02:48:25;;;;;;;9.57;8.35;;;7.40;99.90;;;;;;5051473;28;20209;-91
2021/04/30 02:50:52;;;;;;;9.90;8.90;;;7.30;99.90;;;;;;5052123;28;20200;-92
2021/04/30 02:53:18;;;;;;;9.80;8.32;;;7.20;99.90;;;;;;5051644;28;20233;-92
2021/04/30 02:55:45;;;;;;;12.13;9.13;;;7.10;99.90;;;;;;5051745;28;20728;-92
2021/04/30 02:58:11;;;;;;;9.18;8.27;;;7.10;99.90;;;;;;5051966;28;20205;-91
2021/04/30 03:00:38;;;;;;;10.13;9.10;;;7.00;99.90;;;;;;5051598;28;20227;-90
2021/04/30 03:03:05;;;;;;;9.70;8.70;;;6.90;99.90;;;;;;5051725;28;20710;-91
2021/04/30 03:05:33;;;;;;;8.40;7.60;;;6.80;99.90;;;;;;5051476;28;20193;-92
2021/04/30 03:07:59;;;;;;;9.65;8.65;;;6.70;99.90;;;;;;5052203;28;20610;-91
2021/04/30 03:10:26;;;;;;;10.77;9.38;;;6.70;99.90;;;;;;5051971;28;20625;-92
2021/04/30 03:12:52;;;;;;;10.32;8.73;;;6.70;99.90;;;;;;5065077;28;20231;-94
2021/04/30 03:15:18;;;;;;;10.57;8.02;;;6.60;99.90;;;;;;5074902;28;20352;-92
2021/04/30 03:17:46;;;;;;;10.32;9.32;;;6.60;99.90;;;;;;5052765;28;20674;-92
2021/04/30 03:20:13;;;;;;;11.40;10.10;;;6.60;99.90;;;;;;5051649;28;20196;-91
2021/04/30 03:22:40;;;;;;;11.27;9.70;;;6.60;99.90;;;;;;5052492;28;20599;-93
2021/04/30 03:25:08;;;;;;;10.57;9.05;;;6.70;99.90;;;;;;5051283;28;20288;-93
2021/04/30 03:27:35;;;;;;;11.02;9.80;;;6.70;99.90;;;;;;5051359;28;20205;-94
2021/04/30 03:30:01;;;;;;;12.80;9.95;;;6.70;99.90;;;;;;5051540;28;20220;-92
2021/04/30 03:32:27;;;;;;;11.10;9.77;;;6.80;99.90;;;;;;5052994;28;20221;-93
2021/04/30 03:34:54;;;;;;;10.20;9.15;;;6.80;99.90;;;;;;5054840;28;20229;-93
2021/04/30 03:37:22;;;;;;;13.35;9.80;;;6.80;99.90;;;;;;5052995;28;20197;-93
2021/04/30 03:39:49;;;;;;;12.73;10.00;;;6.90;99.90;;;;;;5052931;28;20205;-92
2021/04/30 03:42:16;;;;;;;10.85;9.40;;;6.90;99.90;;;;;;5052676;28;20299;-92
2021/04/30 03:44:42;;;;;;;10.65;9.52;;;6.90;99.90;;;;;;5052508;28;20211;-92
2021/04/30 03:47:08;;;;;;;11.00;9.80;;;6.90;99.90;;;;;;5051716;28;20212;-92
2021/04/30 03:49:35;;;;;;;11.20;10.02;;;6.90;99.90;;;;;;5051826;28;20212;-92
2021/04/30 03:52:01;;;;;;;11.25;9.65;;;6.90;99.90;;;;;;5054733;28;20254;-92
2021/04/30 03:54:27;;;;;;;12.05;10.75;;;6.90;99.90;;;;;;5055017;28;20208;-91
2021/04/30 03:56:54;;;;;;;10.18;9.15;;;6.90;99.90;;;;;;5055503;28;20572;-92
2021/04/30 03:59:21;;;;;;;11.80;9.38;;;7.00;99.90;;;;;;5055854;28;20262;-91
2021/04/30 04:01:56;;;;;;;10.27;8.93;;;7.00;99.90;;;;;;5055725;28;20279;-91
2021/04/30 04:04:26;;;;;;;10.80;9.65;;;6.90;99.90;;;;;;5056248;28;20204;-92
2021/04/30 04:06:53;;;;;;;11.48;10.07;;;6.90;99.90;;;;;;5056683;28;20209;-92
2021/04/30 04:09:19;;;;;;;9.68;8.45;;;6.90;99.90;;;;;;5059487;28;20608;-93
2021/04/30 04:11:46;;;;;;;11.15;8.40;;;6.90;99.90;;;;;;5072791;22;20196;-73
2021/04/30 04:14:13;;;;;;;11.00;9.57;;;6.90;99.90;;;;;;5051209;28;20201;-72
2021/04/30 04:16:39;;;;;;;11.02;8.98;;;6.90;99.90;;;;;;5051616;28;20917;-71
2021/04/30 04:19:05;;;;;;;9.35;8.35;;;7.00;99.90;;;;;;5051476;28;20221;-72
2021/04/30 04:21:32;;;;;;;9.38;8.40;;;7.00;99.90;;;;;;5050905;28;20626;-72
2021/04/30 04:23:59;;;;;;;9.05;8.07;;;7.10;99.90;;;;;;5051457;28;20635;-72
2021/04/30 04:26:25;;;;;;;9.60;7.38;;;7.10;99.90;;;;;;5050958;28;20237;-72
2021/04/30 04:28:51;;;;;;;10.50;9.32;;;7.10;99.90;;;;;;5051080;28;20217;-72
2021/04/30 04:31:18;;;;;;;13.90;8.85;;;7.10;99.90;;;;;;5050605;28;20201;-72
2021/04/30 04:33:44;;;;;;;9.77;8.77;;;7.20;99.90;;;;;;5051085;28;20204;-72
2021/04/30 04:36:10;;;;;;;11.18;9.45;;;7.20;99.90;;;;;;5050930;28;20233;-72
2021/04/30 04:38:37;;;;;;;9.75;8.75;;;7.10;99.90;;;;;;5050709;28;20220;-72
2021/04/30 04:41:03;;;;;;;11.40;9.70;;;7.10;99.90;;;;;;5050552;28;20435;-72
2021/04/30 04:43:29;;;;;;;9.30;8.40;;;7.10;99.90;;;;;;5050739;28;20216;-72
2021/04/30 04:45:55;;;;;;;11.68;9.43;;;7.10;99.90;;;;;;5050921;28;20668;-71
2021/04/30 04:48:22;;;;;;;10.38;9.20;;;7.10;99.90;;;;;;5050923;28;20204;-73
2021/04/30 04:50:49;;;;;;;9.48;8.48;;;7.10;99.90;;;;;;5050263;28;20255;-72
2021/04/30 04:53:15;;;;;;;11.30;7.63;;;7.20;99.90;;;;;;5050607;28;20205;-72
2021/04/30 04:55:41;;;;;;;9.15;8.25;;;7.20;99.90;;;;;;5050624;28;20565;-72
2021/04/30 04:58:07;;;;;;;9.50;8.48;;;7.20;99.90;;;;;;5050798;28;20201;-71
2021/04/30 05:00:33;;;;;;;9.57;7.68;;;7.30;99.90;;;;;;5050003;28;20712;-72
2021/04/30 05:03:00;;;;;;;9.70;8.48;;;7.30;99.90;;;;;;5050071;28;20201;-72
2021/04/30 05:05:27;;;;;;;8.95;8.02;;;7.40;99.90;;;;;;5050415;28;20201;-71
2021/04/30 05:07:54;;;;;;;8.52;7.70;;;7.40;99.90;;;;;;5050265;28;20210;-72
2021/04/30 05:10:20;;;;;;;8.80;7.90;;;7.30;99.90;;;;;;5049794;28;20762;-72
2021/04/30 05:12:46;;;;;;;10.05;9.00;;;7.40;99.90;;;;;;5050219;28;20262;-72
2021/04/30 05:15:14;;;;;;;9.32;8.07;;;7.40;99.90;;;;;;5050026;28;20221;-71
2021/04/30 05:17:40;;;;;;;10.98;8.80;;;7.40;99.90;;;;;;5050038;28;20208;-72
2021/04/30 05:20:08;;;;;;;11.68;10.13;;;7.40;99.90;;;;;;5049811;28;20618;-72
2021/04/30 05:22:35;;;;;;;10.55;8.57;;;7.40;99.90;;;;;;5049883;28;20673;-72
2021/04/30 05:25:02;;;;;;;10.07;8.48;;;7.60;99.90;;;;;;5049992;28;20197;-72
2021/04/30 05:27:28;;;;;;;11.35;10.02;;;7.60;99.90;;;;;;5049612;28;20570;-72
2021/04/30 05:29:54;;;;;;;12.02;8.98;;;7.60;99.90;;;;;;5049606;28;20228;-72
2021/04/30 05:32:21;;;;;;;10.85;9.40;;;7.70;99.90;;;;;;5049291;28;20738;-73
2021/04/30 05:34:47;;;;;;;11.90;9.07;;;7.70;99.90;;;;;;5126385;22;20228;-69
2021/04/30 05:37:13;;;;;;;12.77;8.90;;;7.70;99.90;;;;;;5069256;28;20196;-69
2021/04/30 05:39:40;;;;;;;9.82;8.82;;;7.70;99.90;;;;;;5080955;28;20231;-70
2021/04/30 05:42:07;;;;;;;10.65;9.25;;;7.70;99.90;;;;;;5089856;28;20253;-69
2021/04/30 05:44:33;;;;;;;13.60;10.23;;;7.70;99.90;;;;;;5090145;28;20687;-70
2021/04/30 05:46:59;;;;;;;14.07;9.68;;;7.80;99.90;;;;;;5089667;28;20196;-69
2021/04/30 05:49:26;;;;;;;11.40;9.70;;;7.80;99.90;;;;;;5089653;28;20223;-70
2021/04/30 05:51:53;;;;;;;10.73;9.63;;;7.80;99.90;;;;;;5089108;28;20679;-70
2021/04/30 05:54:19;;;;;;;12.07;9.60;;;7.90;99.90;;;;;;5089339;28;20780;-70
2021/04/30 05:56:46;;;;;;;9.88;8.98;;;8.00;99.90;;;;;;5089650;28;20223;-70
2021/04/30 05:59:12;;;;;;;9.57;8.55;;;8.00;99.90;;;;;;5089355;28;20216;-69
2021/04/30 06:01:38;;;;;;;10.52;9.05;;;8.10;99.90;;;;;;5089363;28;20200;-71
2021/04/30 06:04:05;;;;;;;10.35;9.35;;;8.10;99.90;;;;;;5089337;28;20204;-71
2021/04/30 06:06:31;;;;;;;9.63;8.18;;;8.20;99.90;;;;;;5089018;28;20196;-69
2021/04/30 06:08:57;;;;;;;9.98;8.95;;;8.30;99.90;;;;;;5088960;28;20215;-69
2021/04/30 06:11:24;;;;;;;12.85;9.05;;;8.40;99.90;;;;;;5088721;28;20199;-69
2021/04/30 06:13:51;;;;;;;13.35;9.40;;;8.40;99.90;;;;;;5088291;28;20204;-69
2021/04/30 06:16:17;;;;;;;9.60;8.68;;;8.50;99.90;;;;;;5089193;28;20598;-69
2021/04/30 06:18:44;;;;;;;11.40;9.48;;;8.60;99.90;;;;;;5089346;28;20224;-69
2021/04/30 06:21:11;;;;;;;10.77;8.82;;;8.60;99.90;;;;;;5088499;28;20381;-69
2021/04/30 06:23:37;;;;;;;11.20;9.90;;;8.60;99.90;;;;;;5089310;28;20435;-69
2021/04/30 06:26:03;;;;;;;13.40;9.65;;;8.50;99.90;;;;;;5089059;28;20218;-69
2021/04/30 06:28:30;;;;;;;10.55;9.27;;;8.60;99.90;;;;;;5088779;28;20202;-69
2021/04/30 06:30:57;;;;;;;10.65;9.60;;;8.60;99.90;;;;;;5088788;28;20204;-69
2021/04/30 06:33:23;;;;;;;9.93;8.32;;;8.60;99.90;;;;;;5089116;28;20204;-70
2021/04/30 06:35:50;;;;;;;11.82;9.85;;;8.50;99.90;;;;;;5088770;28;20631;-69
2021/04/30 06:38:16;;;;;;;9.30;8.30;;;8.50;99.90;;;;;;5088805;28;20324;-69
2021/04/30 06:40:42;;;;;;;11.95;9.75;;;8.40;99.90;;;;;;5088615;28;20482;-70
2021/04/30 06:43:08;;;;;;;11.52;7.93;;;8.40;99.90;;;;;;5088681;28;20207;-69
2021/04/30 06:45:35;;;;;;;11.05;9.18;;;8.40;99.90;;;;;;5088738;28;20199;-70
2021/04/30 06:48:02;;;;;;;10.90;9.05;;;8.40;99.90;;;;;;5088848;28;20207;-69
2021/04/30 06:50:28;;;;;;;11.13;9.68;;;8.40;99.90;;;;;;5088022;28;20296;-70
2021/04/30 06:52:54;;;;;;;10.63;9.52;;;8.30;99.90;;;;;;5088791;28;20678;-70
2021/04/30 06:55:21;;;;;;;11.48;8.95;;;8.30;99.90;;;;;;5088457;28;20562;-69
2021/04/30 06:57:47;;;;;;;10.13;9.00;;;8.30;99.90;;;;;;5088586;28;20219;-69
2021/04/30 07:00:16;;;;;;;9.57;8.60;;;8.30;99.90;;;;;;5087538;28;20726;-70
2021/04/30 07:02:42;;;;;;;9.40;8.35;;;8.20;99.90;;;;;;5088586;28;20584;-70
2021/04/30 07:05:11;;;;;;;12.32;9.90;;;8.20;99.90;;;;;;5088209;28;20196;-69
2021/04/30 07:07:37;;;;;;;13.88;8.77;;;8.10;99.90;;;;;;5088496;28;20206;-69
2021/04/30 07:10:05;;;;;;;9.20;8.32;;;8.10;99.90;;;;;;5088256;28;20219;-70
2021/04/30 07:12:31;;;;;;;10.55;7.75;;;8.10;99.90;;;;;;5087799;28;20644;-69
2021/04/30 07:14:57;;;;;;;8.93;8.07;;;8.20;99.90;;;;;;5088037;28;20223;-69
2021/04/30 07:17:24;;;;;;;9.98;8.80;;;8.30;99.90;;;;;;5088185;28;20667;-69
2021/04/30 07:19:50;;;;;;;9.45;8.52;;;8.30;99.90;;;;;;5087967;28;20281;-69
2021/04/30 07:22:17;;;;;;;8.63;7.63;;;8.30;99.90;;;;;;5087604;28;20200;-69
2021/04/30 07:24:43;;;;;;;10.07;8.70;;;8.30;99.90;;;;;;5089974;28;20207;-69
2021/04/30 07:27:10;;;;;;;10.00;8.55;;;8.40;99.90;;;;;;5091860;28;20196;-69
2021/04/30 07:29:37;;;;;;;9.00;8.02;;;8.50;99.90;;;;;;5092319;28;20223;-69
2021/04/30 07:32:04;;;;;;;10.18;9.18;;;8.40;99.90;;;;;;5091264;28;20212;-69
2021/04/30 07:34:30;;;;;;;9.43;8.50;;;8.50;99.90;;;;;;5091666;28;20655;-69
2021/04/30 07:36:57;;;;;;;9.48;8.25;;;8.50;99.70;;;;;;5091754;28;20220;-69
2021/04/30 07:39:24;;;;;;;9.60;8.60;;;8.50;99.70;;;;;;5091750;28;20275;-69
2021/04/30 07:41:50;;;;;;;9.93;7.75;;;8.60;99.90;;;;;;5091436;28;20795;-69
2021/04/30 07:44:16;;;;;;;9.57;7.97;;;8.60;99.00;;;;;;5091754;28;20200;-70
2021/04/30 07:46:42;;;;;;;8.95;8.07;;;8.60;99.10;;;;;;5092094;28;20196;-69
2021/04/30 07:49:08;;;;;;;9.88;7.68;;;8.60;99.10;;;;;;5091347;28;20596;-69
2021/04/30 07:51:35;;;;;;;7.68;6.97;;;8.60;99.30;;;;;;5091219;28;20282;-69
2021/04/30 07:54:01;;;;;;;9.32;7.80;;;8.60;99.30;;;;;;5091596;28;20228;-70
2021/04/30 07:56:28;;;;;;;9.05;8.15;;;8.60;99.70;;;;;;5091399;28;20713;-69
2021/04/30 07:58:54;;;;;;;9.02;7.50;;;8.50;99.70;;;;;;5091161;28;20227;-69
2021/04/30 08:01:21;;;;;;;9.75;8.75;;;8.60;99.40;;;;;;5090684;28;20199;-71
2021/04/30 08:03:47;;;;;;;9.07;8.13;;;8.50;99.30;;;;;;5091069;28;20202;-69
2021/04/30 08:06:13;;;;;;;11.23;8.25;;;8.50;98.80;;;;;;5091275;28;20200;-69
2021/04/30 08:08:40;;;;;;;11.60;9.18;;;8.50;98.90;;;;;;5091454;28;20212;-69
2021/04/30 08:11:07;;;;;;;10.55;9.10;;;8.50;98.30;;;;;;5090688;28;20196;-69
2021/04/30 08:13:35;;;;;;;9.00;7.32;;;8.40;98.10;;;;;;5091174;28;20258;-71
2021/04/30 08:16:01;;;;;;;10.63;9.32;;;8.40;98.30;;;;;;5091162;28;20424;-69
2021/04/30 08:18:28;;;;;;;8.95;7.70;;;8.30;99.70;;;;;;5090769;28;20199;-69
2021/04/30 08:20:54;;;;;;;9.10;8.20;;;8.30;99.60;;;;;;5090653;28;20570;-69
2021/04/30 08:23:20;;;;;;;8.93;8.02;;;8.40;99.50;;;;;;5091386;28;20200;-69
2021/04/30 08:25:46;;;;;;;9.80;7.53;;;8.40;99.40;;;;;;5091179;28;20196;-70
2021/04/30 08:28:13;;;;;;;8.40;7.60;;;8.40;99.60;;;;;;5090843;28;20208;-69
2021/04/30 08:30:40;;;;;;;8.85;8.05;;;8.40;99.30;;;;;;5090209;28;20227;-70
2021/04/30 08:33:06;;;;;;;9.85;7.93;;;8.40;99.40;;;;;;5090735;28;20230;-69
2021/04/30 08:35:32;;;;;;;8.57;7.68;;;8.40;99.70;;;;;;5090240;28;20702;-70
2021/04/30 08:37:59;;;;;;;11.50;8.77;;;8.50;99.40;;;;;;5090724;28;20200;-70
2021/04/30 08:40:26;;;;;;;9.30;7.75;;;8.50;99.00;;;;;;5090076;28;20767;-70
2021/04/30 08:42:52;;;;;;;9.27;7.57;;;8.60;98.90;;;;;;5090692;28;20222;-69
2021/04/30 08:45:19;;;;;;;9.90;8.40;;;8.70;98.60;;;;;;5090292;28;20663;-69
2021/04/30 08:47:46;;;;;;;9.00;7.95;;;8.80;99.10;;;;;;5090639;28;20558;-69
2021/04/30 08:50:14;;;;;;;8.98;7.95;;;9.00;98.80;;;;;;5089848;28;20224;-70
2021/04/30 08:52:41;;;;;;;10.38;8.30;;;9.20;99.60;;;;;;5090563;28;20199;-69
2021/04/30 08:55:11;;;;;;;9.82;8.82;;;9.30;99.10;;;;;;5090168;28;20258;-69
2021/04/30 08:57:37;;;;;;;9.15;7.95;;;9.60;98.50;;;;;;5090344;28;20287;-69
2021/04/30 09:00:06;;;;;;;12.00;7.63;;;9.60;97.70;;;;;;5090377;28;20277;-69
2021/04/30 09:02:37;;;;;;;8.57;7.60;;;9.70;97.90;;;;;;5089831;28;20204;-69
2021/04/30 09:05:07;;;;;;;8.60;7.80;;;9.60;97.60;;;;;;5090198;28;20210;-69
2021/04/30 09:07:39;;;;;;;8.57;7.38;;;9.50;97.60;;;;;;5089965;28;20234;-69
2021/04/30 09:10:07;;;;;;;9.48;7.40;;;9.50;97.80;;;;;;5089948;28;20234;-69
2021/04/30 09:12:34;;;;;;;10.13;7.45;;;9.50;98.30;;;;;;5089903;28;20196;-69
2021/04/30 09:15:01;;;;;;;10.25;8.68;;;9.30;97.70;;;;;;5090133;28;20207;-69
2021/04/30 09:17:28;;;;;;;9.55;8.55;;;9.10;97.90;;;;;;5089865;28;20574;-69
2021/04/30 09:19:56;;;;;;;10.20;8.52;;;9.00;98.40;;;;;;5090059;28;20219;-70
2021/04/30 09:22:24;;;;;;;9.65;8.50;;;8.90;98.50;;;;;;5089399;28;20207;-69
2021/04/30 09:24:52;;;;;;;10.00;8.48;;;8.80;98.40;;;;;;5090132;28;20249;-69
2021/04/30 09:27:39;;;;;;;9.02;8.13;;;8.80;98.70;;;;;;5090080;28;20199;-69
2021/04/30 09:30:25;;;;;;;13.45;8.75;;;8.80;99.60;;;;;;5089885;28;20223;-69
2021/04/30 09:33:10;;;;;;;12.75;9.80;;;8.80;99.90;;;;;;5090362;28;20199;-69
2021/04/30 09:35:39;;;;;;;10.10;9.05;;;8.80;99.50;;;;;;5090337;28;20615;-70
2021/04/30 09:38:24;;;;;;;10.35;9.35;;;8.70;99.50;;;;;;5090069;28;20207;-69
2021/04/30 09:40:52;;;;;;;10.70;9.35;;;8.80;99.90;;;;;;5089758;28;20207;-69
2021/04/30 09:43:20;;;;;;;9.18;8.27;;;8.90;99.50;;;;;;5089743;28;20233;-69
2021/04/30 09:45:47;;;;;;;10.77;8.80;;;8.90;99.30;;;;;;5089813;28;20235;-69
2021/04/30 09:48:15;;;;;;;9.30;8.32;;;8.90;99.40;;;;;;5088799;28;20303;-69
2021/04/30 09:50:43;;;;;;;11.45;10.25;;;8.80;99.30;;;;;;5089246;28;20224;-69
2021/04/30 09:53:11;;;;;;;10.25;9.25;;;8.80;99.30;;;;;;5089793;28;20693;-69
2021/04/30 09:55:43;;;;;;;10.32;9.32;;;8.80;99.50;;;;;;5089413;28;20220;-69
2021/04/30 09:58:18;;;;;;;12.82;9.48;;;8.80;99.60;;;;;;5089688;28;20654;-69
2021/04/30 10:00:46;;;;;;;9.70;8.70;;;8.90;99.90;;;;;;5089255;28;20223;-69
2021/04/30 10:03:17;;;;;;;9.85;8.68;;;9.00;99.90;;;;;;5089884;28;20207;-69
2021/04/30 10:06:04;;;;;;;12.70;9.50;;;9.00;99.80;;;;;;5089629;28;20206;-71
2021/04/30 10:08:31;;;;;;;9.80;8.30;;;9.10;99.70;;;;;;5089467;28;20215;-69
2021/04/30 10:10:59;;;;;;;10.45;9.45;;;9.10;99.90;;;;;;5089192;28;20200;-69
2021/04/30 10:13:25;;;;;;;11.13;9.93;;;9.10;99.90;;;;;;5089495;28;20207;-69
2021/04/30 10:15:52;;;;;;;11.05;9.95;;;9.10;99.90;;;;;;5089537;28;20224;-70
2021/04/30 10:18:18;;;;;;;10.55;9.55;;;9.10;99.90;;;;;;5089300;28;20203;-69
2021/04/30 10:20:45;;;;;;;11.90;10.13;;;9.10;99.90;;;;;;5088877;28;20223;-69
2021/04/30 10:23:14;;;;;;;11.18;10.02;;;9.00;99.90;;;;;;5089273;28;20211;-70
2021/04/30 10:25:42;;;;;;;10.60;9.50;;;9.10;99.90;;;;;;5089120;28;20378;-69
2021/04/30 10:28:12;;;;;;;11.38;10.05;;;9.10;99.90;;;;;;5089294;28;20203;-69
2021/04/30 10:30:41;;;;;;;12.05;10.77;;;9.10;99.90;;;;;;5088528;28;20276;-69
2021/04/30 10:33:10;;;;;;;12.70;11.40;;;8.90;99.90;;;;;;5089037;28;20721;-69
2021/04/30 10:35:44;;;;;;;12.00;10.70;;;8.80;99.90;;;;;;5088931;28;20231;-69
2021/04/30 10:38:16;;;;;;;12.48;10.95;;;8.70;99.90;;;;;;5088978;28;20210;-69
2021/04/30 10:41:03;;;;;;;11.20;10.10;;;8.50;99.90;;;;;;5088515;28;20262;-69
2021/04/30 10:43:32;;;;;;;11.90;10.25;;;8.50;99.90;;;;;;5088958;28;20536;-69
2021/04/30 10:46:02;;;;;;;15.65;11.77;;;8.30;99.90;;;;;;5088984;28;20203;-69
2021/04/30 10:48:30;;;;;;;13.07;11.73;;;8.20;99.90;;;;;;5089539;28;20204;-69
2021/04/30 10:51:09;;;;;;;13.38;12.02;;;8.10;99.90;;;;;;5088917;28;20207;-69
2021/04/30 10:53:35;;;;;;;16.55;12.80;;;7.90;99.90;;;;;;5089010;28;20507;-69
2021/04/30 10:56:32;;;;;;;13.98;11.00;;;7.80;99.90;;;;;;5088880;28;20595;-69
2021/04/30 10:59:00;;;;;;;13.57;11.80;;;7.70;99.90;;;;;;5089612;28;20215;-69
2021/04/30 11:01:29;;;;;;;13.40;12.10;;;7.70;99.90;;;;;;5093222;28;20203;-69
2021/04/30 11:04:12;;;;;;;17.48;13.00;;;7.60;99.90;;;;;;5093507;28;20203;-69
2021/04/30 11:06:40;;;;;;;14.25;12.00;;;7.50;99.90;;;;;;5092982;28;20199;-69
2021/04/30 11:09:11;;;;;;;14.57;12.63;;;7.40;99.90;;;;;;5093146;28;20227;-69
2021/04/30 11:11:39;;;;;;;16.20;12.15;;;7.30;99.90;;;;;;5092539;28;20206;-70
2021/04/30 11:14:22;;;;;;;14.43;11.63;;;7.30;99.90;;;;;;5092936;28;20203;-69
2021/04/30 11:16:49;;;;;;;14.63;11.40;;;7.30;99.90;;;;;;5092992;28;20242;-69
2021/04/30 11:19:16;;;;;;;14.88;12.25;;;7.30;99.90;;;;;;5092510;28;20593;-69
2021/04/30 11:21:44;;;;;;;14.18;12.57;;;7.10;99.90;;;;;;5092694;28;20616;-69
2021/04/30 11:24:34;;;;;;;14.25;11.82;;;7.00;99.90;;;;;;5092562;28;20200;-69
2021/04/30 11:27:35;;;;;;;13.35;11.95;;;7.00;99.90;;;;;;5092426;28;20196;-69
2021/04/30 11:30:24;;;;;;;14.75;12.05;;;6.90;99.90;;;;;;5092597;28;20242;-69
2021/04/30 11:32:58;;;;;;;16.48;11.07;;;7.00;99.90;;;;;;5092486;28;20196;-69
2021/04/30 11:35:26;;;;;;;13.32;11.93;;;7.00;99.90;;;;;;5091853;28;20224;-69
2021/04/30 11:37:53;;;;;;;17.65;12.07;;;7.00;99.90;;;;;;5239481;22;20711;-73
2021/04/30 11:40:21;;;;;;;13.38;11.45;;;7.00;99.90;;;;;;5071332;28;20227;-73
2021/04/30 11:42:47;;;;;;;16.05;13.05;;;7.00;99.90;;;;;;5071984;28;20663;-72
2021/04/30 11:45:15;;;;;;;18.27;12.55;;;6.90;99.90;;;;;;5072064;28;20208;-72
2021/04/30 11:47:41;;;;;;;14.30;12.38;;;6.90;99.90;;;;;;5071927;28;20672;-72
2021/04/30 11:50:11;;;;;;;14.98;11.88;;;6.80;99.90;;;;;;5071491;28;20220;-72
2021/04/30 11:52:41;;;;;;;14.43;11.52;;;6.80;99.90;;;;;;5071755;28;20204;-73
2021/04/30 11:55:10;;;;;;;15.25;12.05;;;6.80;99.90;;;;;;5071849;28;20630;-73
2021/04/30 11:57:37;;;;;;;15.40;12.45;;;6.80;99.90;;;;;;5059515;28;20204;-73
2021/04/30 12:00:09;;;;;;;15.15;11.52;;;6.80;99.90;;;;;;5069276;28;20228;-73
2021/04/30 12:02:36;;;;;;;12.00;10.80;;;6.70;99.90;;;;;;5069516;28;20200;-72
2021/04/30 12:05:03;;;;;;;12.25;10.85;;;6.70;99.90;;;;;;5070850;28;20203;-73
2021/04/30 12:07:33;;;;;;;13.38;10.85;;;6.70;99.90;;;;;;5070298;28;20207;-72
2021/04/30 12:09:59;;;;;;;11.77;10.68;;;6.60;99.90;;;;;;5070269;28;20763;-72
2021/04/30 12:12:26;;;;;;;14.60;11.40;;;6.50;99.90;;;;;;5067982;28;20226;-72
2021/04/30 12:14:56;;;;;;;12.30;9.80;;;6.50;99.90;;;;;;5070252;28;20239;-72
2021/04/30 12:17:31;;;;;;;13.15;11.05;;;6.40;99.90;;;;;;5070442;28;20224;-72
2021/04/30 12:20:08;;;;;;;11.02;9.93;;;6.40;99.90;;;;;;5071190;28;20223;-72
2021/04/30 12:22:35;;;;;;;13.82;11.40;;;6.40;99.90;;;;;;5062764;28;20211;-71
2021/04/30 12:25:18;;;;;;;12.77;11.48;;;6.40;99.90;;;;;;5071369;28;20227;-72
2021/04/30 12:27:45;;;;;;;12.10;10.00;;;6.30;99.90;;;;;;5070942;28;20196;-73
2021/04/30 12:30:12;;;;;;;11.98;9.88;;;6.40;99.90;;;;;;5071233;28;20615;-72
2021/04/30 12:32:44;;;;;;;12.02;10.38;;;6.50;99.90;;;;;;5068734;28;20215;-73
2021/04/30 12:35:13;;;;;;;10.65;9.55;;;6.40;99.90;;;;;;5069970;28;20257;-73
2021/04/30 12:37:40;;;;;;;12.93;10.80;;;6.40;99.90;;;;;;5069137;28;20257;-73
2021/04/30 12:40:08;;;;;;;13.38;10.52;;;6.50;99.90;;;;;;5067889;28;20220;-73
2021/04/30 12:42:48;;;;;;;11.63;10.13;;;6.60;99.90;;;;;;5067423;28;20208;-73
2021/04/30 12:45:15;;;;;;;12.93;11.05;;;6.60;99.90;;;;;;5068888;28;20208;-73
2021/04/30 12:47:43;;;;;;;11.50;9.90;;;6.60;99.90;;;;;;5069534;28;20656;-73
2021/04/30 12:50:12;;;;;;;11.00;9.60;;;6.60;99.90;;;;;;5068189;28;20597;-73
2021/04/30 12:52:39;;;;;;;11.45;9.50;;;6.60;99.90;;;;;;5067508;28;20619;-73
2021/04/30 12:55:29;;;;;;;12.43;9.85;;;6.60;99.90;;;;;;5067618;28;20437;-72